This is the latest recevied weather packets stored in our database for station/object JL1CBB-13. If no packets are shown the sender has not sent any weather packets the latest 1 day(s).
| Time | Temp. | Humidity | Pressure | Rain* | Wind** | Luminosity | Snow |
|---|---|---|---|---|---|---|---|
| 1778083915 | 17.78° C | 98% | 1018 hPa | 0 mm | - | - | - |
| 1778083315 | 17.78° C | 98% | 1018 hPa | 0 mm | - | - | - |
| 1778080314 | 17.78° C | 98% | 1020 hPa | 0 mm | - | - | - |
| 1778079714 | 17.78° C | 98% | 1020 hPa | 0 mm | - | - | - |
| 1778079116 | 17.78° C | 98% | 1020 hPa | 0 mm | - | - | - |
| 1778078516 | 17.78° C | 98% | 1020 hPa | 0 mm | - | - | - |
| 1778077916 | 17.78° C | 98% | 1020 hPa | 0 mm | - | - | - |
| 1778074316 | 17.78° C | 98% | 1021 hPa | 0 mm | - | - | - |
| 1778073715 | 17.78° C | 98% | 1021 hPa | 0 mm | - | - | - |
| 1778068915 | 17.78° C | 98% | 1021 hPa | 0 mm | - | - | - |
| 1778068315 | 17.78° C | 98% | 1021 hPa | 0 mm | - | - | - |
| 1778067715 | 17.78° C | 98% | 1021 hPa | 0 mm | - | - | - |
| 1778067115 | 17.22° C | 98% | 1021 hPa | 0 mm | - | - | - |
| 1778064114 | 17.78° C | 97% | 1021 hPa | 0 mm | - | - | - |
| 1778063516 | 17.78° C | 97% | 1021 hPa | 0 mm | - | - | - |
| 1778062916 | 17.78° C | 96% | 1021 hPa | 0 mm | - | - | - |
| 1778061115 | 18.89° C | 88% | 1021 hPa | 0 mm | - | - | - |
| 1778060515 | 18.89° C | 84% | 1021 hPa | 0 mm | - | - | - |
| 1778059914 | 19.44° C | 81% | 1021 hPa | 0 mm | - | - | - |
| 1778059315 | 19.44° C | 80% | 1021 hPa | 0 mm | - | - | - |
| 1778058715 | 19.44° C | 80% | 1021 hPa | 0 mm | - | - | - |
| 1778058115 | 19.44° C | 79% | 1021 hPa | 0 mm | - | - | - |
| 1778055714 | 20° C | 78% | 1021 hPa | 0 mm | - | - | - |
| 1778055114 | 20° C | 76% | 1021 hPa | 0 mm | - | - | - |
| 1778054516 | 20° C | 74% | 1021 hPa | 0 mm | - | - | - |
* Rain latest hour (hover to see other rain measurements)
** Current wind speed in m/s (hover to see current wind gust speed)